Time;durP1;ratioP1;P1;durP2;ratioP2;P2;SDS_P1;SDS_P2;PMS_P1;PMS_P2;Temp;Humidity;BMP_temperature;BMP_pressure;BME280_temperature;BME280_humidity;BME280_pressure;Samples;Min_cycle;Max_cycle;Signal;HPM_P1;HPM_P2
2022/10/27 00:01:32;;;;;;;8.02;7.15;;;11.20;99.90;;;;;;5015758;28;20025;-51
2022/10/27 00:03:58;;;;;;;12.23;7.30;;;11.20;99.90;;;;;;5021422;28;20293;-49
2022/10/27 00:06:23;;;;;;;6.85;6.13;;;11.20;99.90;;;;;;5018757;28;20022;-48
2022/10/27 00:08:50;;;;;;;7.80;7.00;;;11.20;99.90;;;;;;5020142;28;20492;-52
2022/10/27 00:11:16;;;;;;;7.47;6.75;;;11.20;99.90;;;;;;5015301;28;20125;-50
2022/10/27 00:13:41;;;;;;;6.93;6.20;;;11.20;99.90;;;;;;5017267;28;20481;-49
2022/10/27 00:16:11;;;;;;;10.65;8.05;;;11.20;99.90;;;;;;5021205;28;20144;-52
2022/10/27 00:18:36;;;;;;;11.20;8.00;;;11.10;99.90;;;;;;5023513;28;20029;-50
2022/10/27 00:21:09;;;;;;;10.55;8.63;;;11.20;99.90;;;;;;5022013;28;20025;-49
2022/10/27 00:23:35;;;;;;;10.32;9.27;;;11.20;99.90;;;;;;5022001;28;20178;-50
2022/10/27 00:26:01;;;;;;;10.00;8.05;;;11.10;99.90;;;;;;5016922;28;20030;-48
2022/10/27 00:28:28;;;;;;;15.65;8.77;;;11.10;99.90;;;;;;5021600;28;20029;-49
2022/10/27 00:31:01;;;;;;;9.88;7.78;;;11.20;99.90;;;;;;5012129;28;20034;-54
2022/10/27 00:33:27;;;;;;;9.90;8.30;;;11.20;99.90;;;;;;5007058;28;20388;-49
2022/10/27 00:35:53;;;;;;;10.23;8.35;;;11.10;99.90;;;;;;5022555;28;20040;-50
2022/10/27 00:38:19;;;;;;;11.60;7.43;;;11.10;99.90;;;;;;5019222;28;20025;-49
2022/10/27 00:40:45;;;;;;;10.63;7.82;;;11.20;99.90;;;;;;5022283;28;20057;-49
2022/10/27 00:43:24;;;;;;;10.68;8.05;;;11.10;99.90;;;;;;5015565;28;20532;-48
2022/10/27 00:45:49;;;;;;;11.88;7.90;;;11.10;99.90;;;;;;5022850;28;20024;-52
2022/10/27 00:48:15;;;;;;;10.93;8.05;;;11.10;99.90;;;;;;5018817;28;20702;-49
2022/10/27 00:50:41;;;;;;;10.63;8.07;;;11.10;99.90;;;;;;5018290;28;20098;-52
2022/10/27 00:53:08;;;;;;;10.63;7.97;;;11.10;99.90;;;;;;5022245;28;20040;-51
2022/10/27 00:55:38;;;;;;;8.75;7.85;;;11.10;99.90;;;;;;5016796;28;20083;-48
2022/10/27 00:58:08;;;;;;;9.75;7.70;;;11.10;99.90;;;;;;5001213;28;20033;-48
2022/10/27 01:00:38;;;;;;;10.57;7.85;;;11.00;99.90;;;;;;5009694;28;20365;-51
2022/10/27 01:03:06;;;;;;;13.65;7.60;;;11.00;99.90;;;;;;5021077;28;20087;-50
2022/10/27 01:05:33;;;;;;;9.27;8.35;;;11.00;99.90;;;;;;5010893;28;20472;-49
2022/10/27 01:08:02;;;;;;;12.43;8.68;;;11.00;99.90;;;;;;5020274;28;20056;-50
2022/10/27 01:10:27;;;;;;;9.25;8.35;;;11.00;99.90;;;;;;5015796;28;20064;-49
2022/10/27 01:12:54;;;;;;;11.02;7.60;;;11.00;99.90;;;;;;5015894;28;20026;-53
2022/10/27 01:15:25;;;;;;;13.13;9.43;;;11.00;99.90;;;;;;5019327;28;20029;-49
2022/10/27 01:17:59;;;;;;;12.15;9.25;;;11.00;99.90;;;;;;5016591;28;20030;-49
2022/10/27 01:20:37;;;;;;;8.82;7.78;;;11.00;99.90;;;;;;5018808;28;20018;-52
2022/10/27 01:23:36;;;;;;;9.85;8.85;;;11.00;99.90;;;;;;5018137;28;20048;-49
2022/10/27 01:26:26;;;;;;;12.93;10.32;;;11.00;99.90;;;;;;5016690;28;20121;-48
2022/10/27 01:29:12;;;;;;;11.93;9.13;;;11.00;99.90;;;;;;5020955;28;20025;-49
2022/10/27 01:31:48;;;;;;;10.15;9.02;;;11.00;99.90;;;;;;5017653;28;20030;-50
2022/10/27 01:34:29;;;;;;;13.68;9.25;;;11.00;99.90;;;;;;5017504;28;20087;-48
2022/10/27 01:37:11;;;;;;;13.23;9.70;;;11.00;99.90;;;;;;5018095;28;20465;-49
2022/10/27 01:40:07;;;;;;;11.00;9.27;;;11.00;99.90;;;;;;5022557;28;20036;-49
2022/10/27 01:42:50;;;;;;;11.05;9.40;;;11.00;99.90;;;;;;5016156;28;20022;-50
2022/10/27 01:45:22;;;;;;;10.05;8.32;;;11.00;99.90;;;;;;5009481;28;20033;-53
2022/10/27 01:47:49;;;;;;;12.00;8.95;;;11.00;99.90;;;;;;5013923;28;20026;-50
2022/10/27 01:50:23;;;;;;;14.18;9.98;;;11.00;99.90;;;;;;5027434;28;20060;-52
2022/10/27 01:52:49;;;;;;;14.45;10.02;;;11.00;99.90;;;;;;5014651;28;20033;-52
2022/10/27 01:55:26;;;;;;;12.80;10.23;;;11.00;99.90;;;;;;5036485;23;20033;-51
2022/10/27 01:58:26;;;;;;;11.90;9.90;;;11.00;99.90;;;;;;4995757;28;20125;-55
2022/10/27 02:01:05;;;;;;;13.00;9.23;;;11.00;99.90;;;;;;5002024;28;20033;-51
2022/10/27 02:03:44;;;;;;;11.48;9.00;;;11.00;99.90;;;;;;4999302;28;20026;-51
2022/10/27 02:06:34;;;;;;;10.38;9.15;;;11.00;99.90;;;;;;4996347;28;20034;-53
2022/10/27 02:09:05;;;;;;;13.52;9.18;;;11.00;99.90;;;;;;4996622;28;20026;-51
2022/10/27 02:11:34;;;;;;;10.65;9.57;;;11.00;99.90;;;;;;4994628;28;20283;-57
2022/10/27 02:14:00;;;;;;;10.30;8.73;;;11.00;99.90;;;;;;4999313;28;20038;-50
2022/10/27 02:16:30;;;;;;;11.88;8.95;;;11.00;99.90;;;;;;4997793;28;20014;-50
2022/10/27 02:19:04;;;;;;;15.68;9.60;;;11.00;99.90;;;;;;4999405;28;20041;-50
2022/10/27 02:21:33;;;;;;;14.13;9.23;;;11.00;99.90;;;;;;4997269;28;20102;-51
2022/10/27 02:23:59;;;;;;;12.48;10.02;;;11.00;99.90;;;;;;5000060;28;20105;-53
2022/10/27 02:26:41;;;;;;;11.85;9.00;;;11.00;99.90;;;;;;4999037;28;20452;-50
2022/10/27 02:29:13;;;;;;;17.75;10.90;;;11.00;99.90;;;;;;4996994;28;20137;-51
2022/10/27 02:31:44;;;;;;;12.23;9.02;;;11.00;99.90;;;;;;4999274;28;20050;-53
2022/10/27 02:34:10;;;;;;;16.25;10.00;;;11.00;99.90;;;;;;4992509;28;20501;-50
2022/10/27 02:36:36;;;;;;;13.98;10.73;;;11.00;99.90;;;;;;4997859;28;20068;-52
2022/10/27 02:39:01;;;;;;;10.88;8.93;;;11.00;99.90;;;;;;4998200;28;20432;-55
2022/10/27 02:41:27;;;;;;;12.80;9.35;;;11.00;99.90;;;;;;5000407;28;20060;-50
2022/10/27 02:43:52;;;;;;;12.68;9.30;;;11.00;99.90;;;;;;5000630;28;20030;-50
2022/10/27 02:46:18;;;;;;;14.35;10.05;;;11.00;99.90;;;;;;4998048;28;20397;-50
2022/10/27 02:48:44;;;;;;;15.05;9.80;;;11.00;99.90;;;;;;5000548;28;20537;-52
2022/10/27 02:51:10;;;;;;;10.98;8.65;;;11.00;99.90;;;;;;4997950;28;20511;-55
2022/10/27 02:53:36;;;;;;;11.45;8.48;;;11.00;99.90;;;;;;4994296;28;20084;-53
2022/10/27 02:56:02;;;;;;;9.02;8.00;;;10.90;99.90;;;;;;4991221;28;20532;-51
2022/10/27 02:58:27;;;;;;;12.68;8.70;;;10.90;99.90;;;;;;5002725;28;20030;-50
2022/10/27 03:00:54;;;;;;;9.90;7.80;;;10.90;99.90;;;;;;4998559;28;20160;-54
2022/10/27 03:03:20;;;;;;;11.27;7.95;;;10.80;99.90;;;;;;4999951;28;20233;-51
2022/10/27 03:05:46;;;;;;;11.20;8.32;;;10.80;99.90;;;;;;4994732;28;20508;-53
2022/10/27 03:08:11;;;;;;;9.27;7.47;;;10.80;99.90;;;;;;4993352;28;20070;-52
2022/10/27 03:10:37;;;;;;;9.00;7.85;;;10.70;99.90;;;;;;5000883;28;20406;-52
2022/10/27 03:13:03;;;;;;;13.13;8.95;;;10.70;99.90;;;;;;4994931;28;20500;-50
2022/10/27 03:15:28;;;;;;;7.90;7.10;;;10.70;99.90;;;;;;5004323;28;20030;-56
2022/10/27 03:17:54;;;;;;;10.68;8.77;;;10.70;99.90;;;;;;5003950;28;20025;-50
2022/10/27 03:20:19;;;;;;;10.02;7.80;;;10.70;99.90;;;;;;5003284;28;20091;-50
2022/10/27 03:22:45;;;;;;;15.32;8.77;;;10.60;99.90;;;;;;5003179;28;20104;-52
2022/10/27 03:25:13;;;;;;;10.52;8.45;;;10.60;99.90;;;;;;5000143;28;20419;-50
2022/10/27 03:27:40;;;;;;;12.07;8.40;;;10.60;99.90;;;;;;5005461;28;20561;-54
2022/10/27 03:30:07;;;;;;;11.32;7.18;;;10.60;99.90;;;;;;5002566;28;20061;-51
2022/10/27 03:32:33;;;;;;;9.30;8.10;;;10.50;99.90;;;;;;5005245;28;20034;-52
2022/10/27 03:34:58;;;;;;;9.27;7.53;;;10.50;99.90;;;;;;5002875;28;20448;-50
2022/10/27 03:37:24;;;;;;;8.82;8.00;;;10.50;99.90;;;;;;5004604;28;20109;-50
2022/10/27 03:39:49;;;;;;;12.18;7.72;;;10.50;99.90;;;;;;5009294;28;20297;-55
2022/10/27 03:42:16;;;;;;;9.27;7.45;;;10.50;99.90;;;;;;5000469;28;20043;-51
2022/10/27 03:44:41;;;;;;;9.88;7.72;;;10.50;99.90;;;;;;5005477;28;20025;-53
2022/10/27 03:47:07;;;;;;;9.20;6.63;;;10.50;99.90;;;;;;4997827;28;20076;-52
2022/10/27 03:49:32;;;;;;;12.20;7.80;;;10.50;99.90;;;;;;5005306;28;20092;-51
2022/10/27 03:51:58;;;;;;;9.77;7.68;;;10.50;99.90;;;;;;5002633;28;20026;-51
2022/10/27 03:54:23;;;;;;;9.85;7.97;;;10.50;99.90;;;;;;5004792;28;20030;-54
2022/10/27 03:56:49;;;;;;;8.23;6.47;;;10.50;99.90;;;;;;5004042;28;20129;-52
2022/10/27 03:59:14;;;;;;;9.73;6.82;;;10.50;99.90;;;;;;5000522;28;20033;-50
2022/10/27 04:01:40;;;;;;;9.00;7.63;;;10.50;99.90;;;;;;4999779;28;20026;-53
2022/10/27 04:04:05;;;;;;;8.63;6.95;;;10.50;99.90;;;;;;5008058;28;20068;-50
2022/10/27 04:06:31;;;;;;;10.88;7.55;;;10.40;99.90;;;;;;5000083;28;20022;-51
2022/10/27 04:08:56;;;;;;;10.25;8.25;;;10.40;99.90;;;;;;5001410;28;20044;-50
2022/10/27 04:11:22;;;;;;;9.63;6.82;;;10.40;99.90;;;;;;5004320;28;20026;-55
2022/10/27 04:13:47;;;;;;;9.85;7.80;;;10.40;99.90;;;;;;4995511;28;20057;-51
2022/10/27 04:16:13;;;;;;;11.27;8.07;;;10.40;99.90;;;;;;5006531;28;20027;-50
2022/10/27 04:18:39;;;;;;;12.98;7.60;;;10.40;99.90;;;;;;5001469;28;20018;-50
2022/10/27 04:21:05;;;;;;;12.23;7.70;;;10.40;99.90;;;;;;5006491;28;20029;-54
2022/10/27 04:23:31;;;;;;;8.20;7.32;;;10.30;99.90;;;;;;4999534;28;20042;-50
2022/10/27 04:25:57;;;;;;;12.07;7.10;;;10.30;99.90;;;;;;5000180;28;20393;-50
2022/10/27 04:28:23;;;;;;;12.38;8.23;;;10.30;99.90;;;;;;5004552;28;20026;-53
2022/10/27 04:30:49;;;;;;;12.15;7.63;;;10.30;99.90;;;;;;4997637;28;20674;-52
2022/10/27 04:33:14;;;;;;;10.35;8.48;;;10.30;99.90;;;;;;4993656;28;20459;-50
2022/10/27 04:35:40;;;;;;;9.32;7.47;;;10.30;99.90;;;;;;4998617;28;20085;-51
2022/10/27 04:38:05;;;;;;;12.15;7.57;;;10.30;99.90;;;;;;5005666;28;20047;-52
2022/10/27 04:40:31;;;;;;;11.02;7.47;;;10.30;99.90;;;;;;4988811;28;20045;-53
2022/10/27 04:42:57;;;;;;;9.13;6.90;;;10.30;99.90;;;;;;4994171;28;20033;-50
2022/10/27 04:45:22;;;;;;;12.40;7.28;;;10.30;99.90;;;;;;4999300;28;20507;-50
2022/10/27 04:47:48;;;;;;;11.60;8.50;;;10.30;99.90;;;;;;4994254;28;20065;-50
2022/10/27 04:50:15;;;;;;;9.23;6.57;;;10.30;99.90;;;;;;5002128;28;20021;-52
2022/10/27 04:52:41;;;;;;;8.75;6.72;;;10.30;99.90;;;;;;4999846;28;20113;-49
2022/10/27 04:55:07;;;;;;;9.25;7.13;;;10.30;99.90;;;;;;5008564;28;20040;-51
2022/10/27 04:57:33;;;;;;;10.90;7.43;;;10.30;99.90;;;;;;5001657;28;20463;-50
2022/10/27 04:59:59;;;;;;;9.30;6.05;;;10.20;99.90;;;;;;4992780;28;20041;-51
2022/10/27 05:02:24;;;;;;;8.35;6.15;;;10.20;99.90;;;;;;5001459;28;20022;-51
2022/10/27 05:04:50;;;;;;;8.85;7.00;;;10.20;99.90;;;;;;5001744;28;20018;-50
2022/10/27 05:07:15;;;;;;;9.45;6.03;;;10.20;99.90;;;;;;5002604;28;20022;-55
2022/10/27 05:09:41;;;;;;;9.35;6.88;;;10.10;99.90;;;;;;4997034;28;20034;-51
2022/10/27 05:12:06;;;;;;;6.60;5.72;;;10.10;99.90;;;;;;5001132;28;20501;-50
2022/10/27 05:14:32;;;;;;;8.63;6.22;;;10.10;99.90;;;;;;4997800;28;20518;-54
2022/10/27 05:16:58;;;;;;;7.18;6.40;;;10.00;99.90;;;;;;5001464;28;20108;-50
2022/10/27 05:19:23;;;;;;;8.20;6.18;;;10.00;99.90;;;;;;5002263;28;20022;-49
2022/10/27 05:21:49;;;;;;;8.07;5.78;;;10.00;99.90;;;;;;5002918;28;20018;-52
2022/10/27 05:24:15;;;;;;;7.75;5.65;;;10.00;99.90;;;;;;5000426;28;20036;-54
2022/10/27 05:26:40;;;;;;;10.32;6.70;;;10.00;99.90;;;;;;4995935;28;20164;-51
2022/10/27 05:29:06;;;;;;;7.32;5.00;;;10.00;99.90;;;;;;4997321;28;20503;-50
2022/10/27 05:31:32;;;;;;;5.93;5.15;;;10.00;99.90;;;;;;4998934;28;20059;-53
2022/10/27 05:33:57;;;;;;;6.22;5.63;;;9.90;99.90;;;;;;5000441;28;20037;-51
2022/10/27 05:36:23;;;;;;;7.55;6.63;;;9.90;99.90;;;;;;4998664;28;20385;-53
2022/10/27 05:38:48;;;;;;;10.55;6.53;;;9.90;99.90;;;;;;5001220;28;20029;-50
2022/10/27 05:41:14;;;;;;;9.13;6.18;;;9.90;99.90;;;;;;4996339;28;20030;-49
2022/10/27 05:43:40;;;;;;;7.10;5.70;;;9.90;99.90;;;;;;5000747;28;20021;-50
2022/10/27 05:46:06;;;;;;;10.60;6.85;;;9.90;99.90;;;;;;5000882;28;20062;-49
2022/10/27 05:48:32;;;;;;;10.75;6.05;;;9.90;99.90;;;;;;5002170;28;20566;-52
2022/10/27 05:50:58;;;;;;;6.93;6.22;;;9.90;99.90;;;;;;5000432;28;20374;-50
2022/10/27 05:53:23;;;;;;;8.10;6.05;;;9.90;99.90;;;;;;4999794;28;20257;-52
2022/10/27 05:55:53;;;;;;;7.35;5.97;;;9.90;99.90;;;;;;4997884;28;20528;-51
2022/10/27 05:58:19;;;;;;;7.47;5.68;;;9.90;99.90;;;;;;5001725;28;20037;-50
2022/10/27 06:00:44;;;;;;;7.32;6.05;;;9.80;99.90;;;;;;4995733;28;20097;-51
2022/10/27 06:03:21;;;;;;;8.18;6.60;;;9.80;99.90;;;;;;5011680;28;20114;-54
2022/10/27 06:05:47;;;;;;;6.88;5.75;;;9.80;99.90;;;;;;4995227;28;20040;-50
2022/10/27 06:08:13;;;;;;;10.23;6.70;;;9.80;99.90;;;;;;5000701;28;20049;-49
2022/10/27 06:10:39;;;;;;;6.88;5.97;;;9.80;99.90;;;;;;5001902;28;20038;-50
2022/10/27 06:13:05;;;;;;;5.78;5.18;;;9.80;99.90;;;;;;4998787;28;20036;-50
2022/10/27 06:15:32;;;;;;;6.65;5.88;;;9.80;99.90;;;;;;5001843;28;20108;-50
2022/10/27 06:17:57;;;;;;;7.15;5.95;;;9.80;99.90;;;;;;4999805;28;20036;-50
2022/10/27 06:20:23;;;;;;;7.80;6.25;;;9.70;99.90;;;;;;5001855;28;20383;-51
2022/10/27 06:22:49;;;;;;;9.23;5.65;;;9.80;99.90;;;;;;5000692;28;20030;-52
2022/10/27 06:25:15;;;;;;;11.77;6.88;;;9.80;99.90;;;;;;4998228;28;20029;-49
2022/10/27 06:27:41;;;;;;;8.13;7.00;;;9.80;99.90;;;;;;5000967;28;20370;-51
2022/10/27 06:30:07;;;;;;;7.40;5.38;;;9.80;99.90;;;;;;4998373;28;20096;-53
2022/10/27 06:32:36;;;;;;;8.70;6.90;;;9.80;99.90;;;;;;5001937;28;20026;-53
2022/10/27 06:35:02;;;;;;;10.23;7.75;;;9.80;99.90;;;;;;4998843;28;20096;-53
2022/10/27 06:37:28;;;;;;;7.53;6.82;;;9.80;99.90;;;;;;5002233;28;20026;-51
2022/10/27 06:39:54;;;;;;;12.07;7.72;;;9.80;99.90;;;;;;5001401;28;20022;-51
2022/10/27 06:42:21;;;;;;;9.85;7.45;;;9.80;99.90;;;;;;4997025;28;20488;-50
2022/10/27 06:44:46;;;;;;;10.48;7.65;;;9.90;99.90;;;;;;5003087;28;20030;-50
2022/10/27 06:47:12;;;;;;;9.30;7.65;;;9.90;99.90;;;;;;5003321;28;20036;-52
2022/10/27 06:49:38;;;;;;;11.43;7.05;;;10.00;99.90;;;;;;5008217;28;20527;-49
2022/10/27 06:52:03;;;;;;;12.40;6.70;;;10.00;99.90;;;;;;5005065;28;20037;-51
2022/10/27 06:54:29;;;;;;;10.68;7.75;;;10.00;99.90;;;;;;5009076;28;20018;-53
2022/10/27 06:56:54;;;;;;;9.55;8.55;;;10.10;99.90;;;;;;5006279;28;20110;-50
2022/10/27 06:59:20;;;;;;;10.23;7.70;;;10.10;99.90;;;;;;5003929;28;20022;-51
2022/10/27 07:01:46;;;;;;;9.27;7.40;;;10.10;99.90;;;;;;5003160;28;20022;-53
2022/10/27 07:04:11;;;;;;;12.30;8.15;;;10.20;99.90;;;;;;5011741;28;20025;-55
2022/10/27 07:06:37;;;;;;;8.65;7.78;;;10.20;99.90;;;;;;5003693;28;20344;-51
2022/10/27 07:09:02;;;;;;;10.23;8.38;;;10.20;99.90;;;;;;5006018;28;20031;-50
2022/10/27 07:11:28;;;;;;;11.63;7.65;;;10.30;99.90;;;;;;5007552;28;20393;-52
2022/10/27 07:13:54;;;;;;;10.98;7.90;;;10.30;99.90;;;;;;5004642;28;20022;-54
2022/10/27 07:16:20;;;;;;;11.18;8.27;;;10.30;99.90;;;;;;5009524;28;20428;-54
2022/10/27 07:18:46;;;;;;;11.57;8.68;;;10.30;99.90;;;;;;5003708;28;20400;-55
2022/10/27 07:21:15;;;;;;;10.35;8.52;;;10.40;99.90;;;;;;5011422;28;20011;-53
2022/10/27 07:23:40;;;;;;;11.20;7.80;;;10.40;99.90;;;;;;5003793;28;20018;-54
2022/10/27 07:26:06;;;;;;;9.73;8.73;;;10.40;99.90;;;;;;5006332;28;20030;-52
2022/10/27 07:28:32;;;;;;;10.80;8.70;;;10.40;99.90;;;;;;5007297;28;20065;-51
2022/10/27 07:30:57;;;;;;;11.65;9.15;;;10.50;99.90;;;;;;5004521;28;20058;-51
2022/10/27 07:33:23;;;;;;;13.68;8.75;;;10.50;99.90;;;;;;5009124;28;20104;-50
2022/10/27 07:35:50;;;;;;;13.40;8.88;;;10.50;99.90;;;;;;4997505;28;20080;-52
2022/10/27 07:38:17;;;;;;;12.55;9.38;;;10.60;99.90;;;;;;5000359;28;20222;-52
2022/10/27 07:40:42;;;;;;;10.30;8.82;;;10.60;99.90;;;;;;5006233;28;20030;-54
2022/10/27 07:43:08;;;;;;;14.85;8.80;;;10.70;99.90;;;;;;5000741;28;20041;-53
2022/10/27 07:45:36;;;;;;;14.10;9.52;;;10.70;99.90;;;;;;5006574;28;20358;-52
2022/10/27 07:48:02;;;;;;;19.23;10.35;;;10.80;99.90;;;;;;4999974;28;20019;-50
2022/10/27 07:50:28;;;;;;;14.10;9.65;;;10.80;99.90;;;;;;5008798;28;20034;-52
2022/10/27 07:52:55;;;;;;;13.60;9.63;;;10.90;99.90;;;;;;4998268;28;20026;-52
2022/10/27 07:55:23;;;;;;;14.15;9.77;;;10.90;99.90;;;;;;5006747;28;20030;-55
2022/10/27 07:57:58;;;;;;;16.33;9.80;;;11.00;99.90;;;;;;5031839;22;20133;-47
2022/10/27 08:00:23;;;;;;;15.80;10.40;;;11.10;99.90;;;;;;5010272;28;20379;-48
2022/10/27 08:02:49;;;;;;;16.63;10.32;;;11.10;99.90;;;;;;5021804;28;20343;-53
2022/10/27 08:05:14;;;;;;;17.60;11.35;;;11.20;99.90;;;;;;5024318;28;20022;-47
2022/10/27 08:07:40;;;;;;;15.20;10.35;;;11.30;99.90;;;;;;5010264;28;20029;-47
2022/10/27 08:10:06;;;;;;;14.77;11.77;;;11.30;99.90;;;;;;4998753;28;20026;-47
2022/10/27 08:12:31;;;;;;;15.88;11.02;;;11.40;99.90;;;;;;4999719;28;20497;-47
2022/10/27 08:14:57;;;;;;;15.68;10.48;;;11.50;99.90;;;;;;5001355;28;20045;-47
2022/10/27 08:17:27;;;;;;;13.95;10.45;;;11.50;99.90;;;;;;5001336;28;20026;-47
2022/10/27 08:19:53;;;;;;;12.82;9.85;;;11.50;99.90;;;;;;5003808;28;20037;-50
2022/10/27 08:22:18;;;;;;;15.35;10.88;;;11.60;99.90;;;;;;5008179;28;20014;-47
2022/10/27 08:24:44;;;;;;;14.43;10.65;;;11.60;99.90;;;;;;5005166;28;20045;-53
2022/10/27 08:27:09;;;;;;;13.38;10.60;;;11.70;99.90;;;;;;4995262;28;20022;-47
2022/10/27 08:29:35;;;;;;;15.35;10.73;;;11.80;99.90;;;;;;5006746;28;20038;-49
2022/10/27 08:32:00;;;;;;;19.77;11.63;;;11.80;99.90;;;;;;5002744;28;20088;-49
2022/10/27 08:34:26;;;;;;;15.70;11.88;;;11.80;99.90;;;;;;5001972;28;20108;-51
2022/10/27 08:36:52;;;;;;;14.73;11.00;;;11.90;99.90;;;;;;5003764;28;20026;-51
2022/10/27 08:39:17;;;;;;;19.08;11.40;;;11.90;99.90;;;;;;5002410;28;20658;-54
2022/10/27 08:42:04;;;;;;;15.13;10.45;;;12.00;99.90;;;;;;5005428;28;20083;-52
2022/10/27 08:44:32;;;;;;;19.33;11.80;;;12.10;99.90;;;;;;5001118;28;20026;-47
2022/10/27 08:47:04;;;;;;;20.50;12.02;;;12.10;99.90;;;;;;5001436;28;20429;-50
2022/10/27 08:49:36;;;;;;;17.00;11.95;;;12.20;99.90;;;;;;5003849;28;20380;-51
2022/10/27 08:52:23;;;;;;;17.15;12.00;;;12.30;99.90;;;;;;5002248;28;20509;-52
2022/10/27 08:54:54;;;;;;;17.80;12.25;;;12.40;99.90;;;;;;4996251;28;20072;-50
2022/10/27 08:57:25;;;;;;;18.48;12.40;;;12.50;99.90;;;;;;5000647;28;20032;-49
2022/10/27 08:59:53;;;;;;;17.83;11.90;;;12.60;99.90;;;;;;4990508;28;20544;-48
2022/10/27 09:02:24;;;;;;;18.50;12.50;;;12.70;99.90;;;;;;4997909;28;20018;-51
2022/10/27 09:05:27;;;;;;;24.67;14.25;;;12.80;99.90;;;;;;5004098;28;20026;-49
2022/10/27 09:08:18;;;;;;;16.85;11.73;;;12.90;99.90;;;;;;4984715;28;20076;-49
2022/10/27 09:10:59;;;;;;;18.88;12.77;;;13.10;99.90;;;;;;4971039;28;20049;-49
2022/10/27 09:14:04;;;;;;;18.08;11.43;;;13.20;99.90;;;;;;5000749;28;20040;-49
2022/10/27 09:16:42;;;;;;;17.42;11.75;;;13.30;99.90;;;;;;4987174;28;20061;-47
2022/10/27 09:19:18;;;;;;;24.25;12.70;;;13.40;99.90;;;;;;5000912;28;20551;-53
2022/10/27 09:21:44;;;;;;;24.08;12.23;;;13.50;99.90;;;;;;5002925;28;20037;-50
2022/10/27 09:24:13;;;;;;;18.60;11.82;;;13.60;99.90;;;;;;5000498;28;20038;-53
2022/10/27 09:26:41;;;;;;;18.45;11.77;;;13.70;99.90;;;;;;4991704;28;20054;-49
2022/10/27 09:29:17;;;;;;;16.80;11.75;;;13.80;99.90;;;;;;5001803;28;20456;-51
2022/10/27 09:31:57;;;;;;;17.55;10.43;;;13.90;99.90;;;;;;4997169;28;20105;-48
2022/10/27 09:34:28;;;;;;;14.73;11.43;;;14.00;99.90;;;;;;4986838;28;20027;-47
2022/10/27 09:36:55;;;;;;;16.65;10.93;;;14.00;99.90;;;;;;4999449;28;20029;-53
2022/10/27 09:39:21;;;;;;;14.68;10.55;;;14.10;99.90;;;;;;5002901;28;20046;-52
2022/10/27 09:41:47;;;;;;;16.13;10.15;;;14.20;99.90;;;;;;4999768;28;20581;-50
2022/10/27 09:44:19;;;;;;;18.92;10.68;;;14.30;99.90;;;;;;4998860;28;20029;-51
2022/10/27 09:46:56;;;;;;;17.23;10.68;;;14.30;99.90;;;;;;5000138;28;20470;-48
2022/10/27 09:49:34;;;;;;;18.42;10.68;;;14.40;99.90;;;;;;4999605;28;20130;-50
2022/10/27 09:52:05;;;;;;;11.52;8.88;;;14.50;99.90;;;;;;4996975;28;20080;-48
2022/10/27 09:54:32;;;;;;;22.65;10.48;;;14.50;99.90;;;;;;4994512;28;20041;-54
2022/10/27 09:57:04;;;;;;;15.38;8.95;;;14.60;99.90;;;;;;4967615;28;1044520;-49
2022/10/27 09:59:31;;;;;;;14.13;8.35;;;14.60;99.90;;;;;;4998592;28;20014;-54
2022/10/27 10:01:58;;;;;;;13.10;8.38;;;14.60;99.90;;;;;;4992391;28;20045;-52
2022/10/27 10:04:42;;;;;;;17.67;9.15;;;14.60;99.90;;;;;;5005663;28;20523;-49
2022/10/27 10:07:40;;;;;;;17.88;8.68;;;14.70;99.90;;;;;;5000538;28;20034;-48
2022/10/27 10:10:28;;;;;;;11.10;7.85;;;14.70;99.90;;;;;;4994296;28;20117;-49
2022/10/27 10:13:03;;;;;;;10.70;7.55;;;14.80;99.90;;;;;;5000557;28;20060;-53
2022/10/27 10:15:37;;;;;;;12.57;7.20;;;14.80;99.90;;;;;;4995662;28;20100;-51
2022/10/27 10:18:14;;;;;;;10.07;6.68;;;14.80;99.90;;;;;;5004276;28;20029;-53
2022/10/27 10:20:42;;;;;;;12.75;6.57;;;14.90;99.90;;;;;;5004462;28;20022;-51
2022/10/27 10:23:20;;;;;;;10.13;5.88;;;14.90;99.90;;;;;;5003384;28;20030;-56
2022/10/27 10:25:48;;;;;;;7.28;6.05;;;14.90;99.90;;;;;;4997904;28;20041;-52
2022/10/27 10:28:31;;;;;;;10.15;6.45;;;15.00;99.90;;;;;;5006906;28;20041;-58
2022/10/27 10:30:58;;;;;;;8.63;5.95;;;15.00;99.90;;;;;;4999695;28;20026;-49
2022/10/27 10:33:28;;;;;;;10.38;6.50;;;15.10;99.90;;;;;;5006984;28;20105;-54
2022/10/27 10:35:54;;;;;;;8.80;5.43;;;15.20;99.90;;;;;;5000492;28;20122;-52
2022/10/27 10:38:22;;;;;;;10.75;6.03;;;15.20;99.90;;;;;;5008704;28;20438;-54
2022/10/27 10:41:12;;;;;;;8.18;5.57;;;15.30;99.90;;;;;;5000413;28;20027;-52
2022/10/27 10:43:38;;;;;;;9.43;5.30;;;15.40;99.90;;;;;;4982348;28;20045;-52
2022/10/27 10:46:10;;;;;;;10.82;5.50;;;15.40;99.90;;;;;;5003187;28;20070;-56
2022/10/27 10:48:41;;;;;;;7.63;4.90;;;15.50;99.90;;;;;;5002042;28;20033;-53
2022/10/27 10:51:10;;;;;;;14.40;5.45;;;15.60;99.90;;;;;;5000570;28;20035;-54
2022/10/27 10:53:47;;;;;;;10.20;5.40;;;15.60;99.90;;;;;;5002783;28;20109;-55
2022/10/27 10:56:25;;;;;;;7.18;4.85;;;15.70;99.90;;;;;;5005484;28;20076;-52
2022/10/27 10:59:02;;;;;;;8.02;4.82;;;15.80;99.90;;;;;;5003350;28;20459;-50
2022/10/27 11:01:53;;;;;;;6.57;4.30;;;15.90;99.90;;;;;;4996787;28;20477;-51
2022/10/27 11:04:24;;;;;;;4.93;4.43;;;15.90;99.90;;;;;;4995505;28;20014;-54
2022/10/27 11:07:21;;;;;;;8.38;4.95;;;16.00;99.90;;;;;;4999982;28;20023;-50
2022/10/27 11:09:53;;;;;;;;;;;16.00;99.90;;;;;;4995178;28;20061;-52
2022/10/27 11:12:50;;;;;;;7.95;4.28;;;16.10;99.90;;;;;;4989245;28;19909;-53
2022/10/27 11:15:31;;;;;;;6.47;4.95;;;16.10;99.90;;;;;;4975576;28;20405;-53
2022/10/27 11:18:11;;;;;;;5.97;4.32;;;16.20;99.90;;;;;;5004816;28;20030;-50
2022/10/27 11:20:37;;;;;;;10.07;4.22;;;16.30;99.90;;;;;;4993789;28;20026;-52
2022/10/27 11:23:17;;;;;;;5.25;3.38;;;16.40;99.90;;;;;;5004208;28;20046;-52
2022/10/27 11:25:44;;;;;;;5.18;3.65;;;16.40;99.90;;;;;;5004570;28;20023;-49
2022/10/27 11:28:32;;;;;;;6.90;3.55;;;16.40;99.90;;;;;;5005410;28;20033;-52
2022/10/27 11:31:21;;;;;;;8.02;4.22;;;16.50;99.90;;;;;;4994317;28;20423;-51
2022/10/27 11:33:52;;;;;;;10.40;3.67;;;16.50;99.90;;;;;;5007493;28;20033;-53
2022/10/27 11:36:29;;;;;;;7.75;3.70;;;16.60;99.90;;;;;;4991295;28;20018;-51
2022/10/27 11:39:03;;;;;;;5.90;3.25;;;16.60;99.90;;;;;;5008464;28;20027;-51
2022/10/27 11:41:48;;;;;;;4.50;3.42;;;16.70;99.90;;;;;;5006831;28;20024;-51
2022/10/27 11:44:46;;;;;;;8.10;3.88;;;16.70;99.90;;;;;;4995205;28;20025;-53
2022/10/27 11:47:30;;;;;;;9.15;3.63;;;16.80;99.90;;;;;;5004731;28;20049;-55
2022/10/27 11:49:56;;;;;;;8.95;3.13;;;16.90;99.90;;;;;;5008461;28;20021;-53
2022/10/27 11:52:33;;;;;;;6.70;2.45;;;16.90;99.90;;;;;;5003493;28;20426;-52
2022/10/27 11:55:02;;;;;;;5.38;3.25;;;17.00;99.90;;;;;;5009739;28;20032;-51
2022/10/27 11:57:42;;;;;;;3.85;2.85;;;17.10;99.90;;;;;;5005771;28;20026;-52
2022/10/27 12:00:20;;;;;;;4.75;3.05;;;17.10;99.90;;;;;;5003599;28;20065;-49
2022/10/27 12:03:20;;;;;;;7.85;3.03;;;17.20;99.90;;;;;;4994127;28;20106;-50
2022/10/27 12:06:06;;;;;;;14.35;3.95;;;17.20;99.90;;;;;;5005297;28;20544;-51
2022/10/27 12:08:47;;;;;;;4.15;3.00;;;17.20;99.90;;;;;;4990609;28;20065;-49
2022/10/27 12:11:35;;;;;;;7.57;3.40;;;17.20;99.90;;;;;;5003824;28;20099;-57
2022/10/27 12:14:19;;;;;;;8.23;3.22;;;17.30;99.90;;;;;;5002942;28;20034;-51
2022/10/27 12:17:16;;;;;;;5.78;2.83;;;17.30;99.90;;;;;;5000956;28;20121;-53
2022/10/27 12:19:44;;;;;;;5.90;3.08;;;17.30;99.90;;;;;;4995575;28;20057;-51
2022/10/27 12:22:29;;;;;;;4.43;2.70;;;17.40;99.90;;;;;;5007002;28;20037;-48
2022/10/27 12:25:04;;;;;;;7.35;2.55;;;17.40;99.90;;;;;;4996209;28;20362;-50
2022/10/27 12:27:38;;;;;;;6.13;2.60;;;17.40;99.90;;;;;;4998959;28;20136;-56
2022/10/27 12:30:24;;;;;;;2.95;2.20;;;17.40;99.90;;;;;;4998351;28;20038;-51
2022/10/27 12:33:14;;;;;;;4.95;2.30;;;17.50;99.90;;;;;;5006895;28;20018;-48
2022/10/27 12:35:48;;;;;;;3.63;2.42;;;17.50;99.90;;;;;;5000566;28;20028;-57
2022/10/27 12:38:40;;;;;;;4.93;2.40;;;17.50;99.90;;;;;;5009355;28;20141;-55
2022/10/27 12:41:20;;;;;;;4.18;2.90;;;17.50;99.90;;;;;;4993188;28;20477;-53
2022/10/27 12:44:17;;;;;;;3.45;2.15;;;17.60;99.90;;;;;;4993776;28;20029;-56
2022/10/27 12:46:56;;;;;;;3.97;2.10;;;17.60;99.90;;;;;;4991841;28;20030;-55
2022/10/27 12:49:33;;;;;;;3.08;2.17;;;17.60;99.90;;;;;;4990536;28;20346;-54
2022/10/27 12:52:25;;;;;;;3.05;2.75;;;17.60;99.90;;;;;;4997755;28;20045;-49
2022/10/27 12:55:13;;;;;;;4.30;2.35;;;17.70;99.90;;;;;;5002837;28;20022;-51
2022/10/27 12:58:00;;;;;;;4.45;2.63;;;17.70;99.90;;;;;;5003383;28;20042;-54
2022/10/27 13:00:26;;;;;;;3.08;2.30;;;17.70;99.90;;;;;;4990538;28;20092;-53